createdAt,value
2022-07-26T00:02:48.469Z,20.09
2022-07-26T00:07:52.260Z,20.14
2022-07-26T00:12:54.303Z,20.15
2022-07-26T00:17:56.022Z,20.15
2022-07-26T00:22:59.202Z,20.24
2022-07-26T00:28:01.376Z,20.06
2022-07-26T00:33:03.685Z,20.04
2022-07-26T00:38:08.200Z,19.99
2022-07-26T00:43:11.350Z,19.96
2022-07-26T00:48:13.491Z,19.88
2022-07-26T00:53:21.587Z,19.77
2022-07-26T00:58:23.322Z,19.80
2022-07-26T01:03:25.425Z,19.85
2022-07-26T01:08:40.007Z,19.73
2022-07-26T01:13:46.506Z,19.76
2022-07-26T01:18:48.517Z,19.81
2022-07-26T01:23:51.575Z,19.80
2022-07-26T01:28:53.663Z,19.80
2022-07-26T01:33:55.852Z,19.66
2022-07-26T01:38:59.313Z,19.54
2022-07-26T01:44:01.330Z,19.40
2022-07-26T01:49:03.991Z,19.33
2022-07-26T01:54:08.192Z,19.29
2022-07-26T01:59:10.693Z,19.33
2022-07-26T02:04:12.900Z,19.35
2022-07-26T02:09:16.319Z,19.31
2022-07-26T02:14:25.776Z,19.22
2022-07-26T02:19:31.089Z,19.09
2022-07-26T02:24:34.987Z,19.03
2022-07-26T02:29:37.026Z,18.92
2022-07-26T02:34:38.933Z,18.88
2022-07-26T02:39:42.122Z,18.79
2022-07-26T02:44:44.506Z,18.69
2022-07-26T02:49:46.620Z,18.60
2022-07-26T02:54:50.043Z,18.58
2022-07-26T02:59:52.045Z,18.46
2022-07-26T03:04:53.770Z,18.41
2022-07-26T03:09:56.850Z,18.38
2022-07-26T03:14:59.133Z,18.38
2022-07-26T03:20:01.207Z,18.31
2022-07-26T03:25:04.917Z,18.29
2022-07-26T03:30:08.043Z,18.18
2022-07-26T03:35:10.100Z,18.20
2022-07-26T03:40:14.820Z,18.13
2022-07-26T03:45:16.841Z,18.10
2022-07-26T03:50:18.651Z,18.08
2022-07-26T03:55:22.177Z,18.13
2022-07-26T04:00:23.930Z,18.09
2022-07-26T04:05:26.004Z,18.10
2022-07-26T04:10:29.543Z,18.10
2022-07-26T04:15:31.299Z,18.12
2022-07-26T04:20:33.382Z,18.11
2022-07-26T04:25:41.038Z,18.12
2022-07-26T04:30:44.026Z,18.14
2022-07-26T04:35:45.822Z,18.29
2022-07-26T04:40:49.582Z,18.46
2022-07-26T04:45:51.868Z,18.51
2022-07-26T04:50:53.718Z,18.73
2022-07-26T04:55:56.820Z,18.93
2022-07-26T05:01:14.659Z,19.07
2022-07-26T05:06:16.533Z,19.18
2022-07-26T05:11:19.657Z,19.14
2022-07-26T05:16:21.536Z,19.11
2022-07-26T05:21:24.470Z,19.54
2022-07-26T05:26:27.587Z,19.95
2022-07-26T05:31:29.550Z,20.60
2022-07-26T05:36:31.639Z,20.08
2022-07-26T05:41:34.757Z,20.84
2022-07-26T05:46:37.011Z,21.85
2022-07-26T05:51:38.812Z,23.33
2022-07-26T05:56:42.019Z,23.91
2022-07-26T06:01:43.803Z,24.25
2022-07-26T06:06:45.688Z,25.47
2022-07-26T06:11:48.827Z,25.89
2022-07-26T06:16:51.087Z,25.27
2022-07-26T06:21:52.963Z,24.56
2022-07-26T06:27:04.692Z,24.26
2022-07-26T06:32:07.636Z,25.01
2022-07-26T06:37:09.683Z,24.25
2022-07-26T06:42:12.846Z,23.88
2022-07-26T06:47:14.926Z,23.58
2022-07-26T06:52:16.793Z,24.18
2022-07-26T06:57:19.962Z,24.59
2022-07-26T07:02:21.752Z,24.22
2022-07-26T07:07:23.560Z,24.34
2022-07-26T07:12:27.135Z,24.20
2022-07-26T07:17:29.338Z,23.93
2022-07-26T07:22:31.458Z,24.37
2022-07-26T07:27:34.631Z,24.44
2022-07-26T07:32:36.728Z,24.38
2022-07-26T07:37:52.962Z,24.43
2022-07-26T07:42:57.404Z,26.44
2022-07-26T07:47:59.515Z,27.27
2022-07-26T07:53:02.097Z,28.40
2022-07-26T07:58:07.151Z,27.76
2022-07-26T08:03:08.959Z,26.87
2022-07-26T08:08:10.737Z,26.94
2022-07-26T08:13:14.087Z,26.36
2022-07-26T08:18:15.916Z,26.35
2022-07-26T08:23:18.710Z,27.68
2022-07-26T08:28:38.114Z,29.53
2022-07-26T08:33:45.834Z,26.28
2022-07-26T08:38:48.759Z,28.22
2022-07-26T08:43:53.752Z,27.41
2022-07-26T08:48:56.775Z,26.95
2022-07-26T08:54:05.733Z,27.08
2022-07-26T08:59:20.126Z,25.46
2022-07-26T09:04:34.567Z,25.52
2022-07-26T09:09:55.443Z,26.16
2022-07-26T09:14:59.867Z,28.00
2022-07-26T09:20:07.280Z,27.48
2022-07-26T09:25:20.730Z,26.94
2022-07-26T09:30:23.984Z,29.16
2022-07-26T09:40:50.900Z,30.15
2022-07-26T09:46:05.524Z,27.07
2022-07-26T09:51:08.231Z,29.82
2022-07-26T09:56:10.016Z,28.44
2022-07-26T10:01:13.385Z,25.39
2022-07-26T10:06:15.357Z,24.80
2022-07-26T10:11:18.878Z,23.99
2022-07-26T10:16:30.728Z,23.70
2022-07-26T10:21:34.437Z,23.59
2022-07-26T10:26:42.135Z,23.82
2022-07-26T10:31:47.326Z,24.08
2022-07-26T10:36:57.730Z,24.16
2022-07-26T10:42:02.067Z,24.94
2022-07-26T10:47:16.757Z,25.08
2022-07-26T10:52:20.704Z,28.25
2022-07-26T10:57:22.718Z,29.29
2022-07-26T11:02:29.698Z,27.81
2022-07-26T11:07:31.592Z,26.97
2022-07-26T11:12:33.377Z,26.91
2022-07-26T11:17:36.810Z,26.96
2022-07-26T11:22:38.605Z,25.19
2022-07-26T11:27:58.633Z,24.69
2022-07-26T11:33:01.810Z,24.87
2022-07-26T11:38:11.783Z,25.00
2022-07-26T11:43:14.352Z,25.30
2022-07-26T11:48:17.522Z,25.07
2022-07-26T11:53:22.864Z,25.86
2022-07-26T11:58:25.779Z,26.08
2022-07-26T12:03:28.990Z,25.75
2022-07-26T12:08:39.253Z,23.39
2022-07-26T12:13:56.215Z,22.21
2022-07-26T12:18:59.472Z,21.64
2022-07-26T12:24:01.576Z,21.39
2022-07-26T12:29:04.224Z,21.38
2022-07-26T12:34:07.439Z,20.62
2022-07-26T12:39:19.790Z,20.39
2022-07-26T12:44:21.739Z,20.28
2022-07-26T12:49:24.951Z,20.59
2022-07-26T12:54:29.591Z,21.00
2022-07-26T12:59:31.456Z,21.15
2022-07-26T13:04:35.089Z,21.32
2022-07-26T13:09:37.316Z,21.28
2022-07-26T13:14:40.189Z,21.37
2022-07-26T13:19:43.365Z,21.99
2022-07-26T13:24:45.140Z,22.48
2022-07-26T13:29:48.745Z,21.98
2022-07-26T13:34:52.505Z,21.66
2022-07-26T13:39:54.400Z,21.70
2022-07-26T13:44:56.612Z,21.33
2022-07-26T13:50:00.346Z,21.47
2022-07-26T13:55:02.560Z,21.85
2022-07-26T14:00:05.661Z,21.53
2022-07-26T14:05:09.796Z,21.44
2022-07-26T14:10:11.683Z,21.58
2022-07-26T14:15:19.537Z,21.39
2022-07-26T14:20:25.206Z,22.00
2022-07-26T14:25:27.538Z,22.09
2022-07-26T14:30:30.497Z,22.33
2022-07-26T14:35:33.726Z,22.33
2022-07-26T14:40:36.458Z,22.63
2022-07-26T14:45:38.323Z,22.79
2022-07-26T14:51:07.283Z,23.17
2022-07-26T14:56:04.446Z,23.55
2022-07-26T15:01:06.739Z,24.04
2022-07-26T15:06:10.379Z,23.61
2022-07-26T15:11:12.388Z,23.67
2022-07-26T15:16:14.562Z,24.00
2022-07-26T15:21:17.807Z,23.97
2022-07-26T15:26:19.603Z,23.43
2022-07-26T15:31:21.418Z,22.93
2022-07-26T15:36:24.661Z,22.34
2022-07-26T15:41:26.535Z,22.37
2022-07-26T15:46:28.323Z,22.74
2022-07-26T15:51:31.723Z,22.72
2022-07-26T15:56:33.727Z,22.81
2022-07-26T16:01:37.020Z,22.52
2022-07-26T16:06:40.598Z,22.05
2022-07-26T16:11:42.444Z,21.99
2022-07-26T16:16:44.691Z,22.00
2022-07-26T16:21:48.640Z,22.12
2022-07-26T16:26:50.355Z,22.19
2022-07-26T16:31:53.577Z,22.37
2022-07-26T16:36:57.189Z,22.41
2022-07-26T16:42:04.585Z,22.68
2022-07-26T16:47:08.799Z,22.47
2022-07-26T16:52:12.178Z,22.31
2022-07-26T16:57:14.411Z,22.39
2022-07-26T17:02:16.445Z,22.44
2022-07-26T17:07:25.593Z,22.47
2022-07-26T17:12:27.969Z,22.88
2022-07-26T17:17:29.837Z,22.61
2022-07-26T17:22:33.065Z,22.62
2022-07-26T17:27:35.427Z,22.83
2022-07-26T17:32:37.137Z,22.84
2022-07-26T17:37:40.866Z,22.63
2022-07-26T17:42:42.746Z,22.36
2022-07-26T17:47:45.073Z,22.06
2022-07-26T17:52:49.270Z,22.18
2022-07-26T17:57:51.582Z,22.18
2022-07-26T18:02:53.330Z,22.16
2022-07-26T18:07:56.778Z,22.17
2022-07-26T18:12:58.906Z,21.90
2022-07-26T18:18:00.963Z,21.62
2022-07-26T18:23:04.500Z,21.18
2022-07-26T18:28:07.453Z,21.03
2022-07-26T18:33:09.603Z,20.84
2022-07-26T18:38:12.986Z,20.66
2022-07-26T18:43:15.008Z,20.48
2022-07-26T18:48:16.859Z,20.17
2022-07-26T18:53:20.339Z,20.06
2022-07-26T18:58:25.483Z,19.92
2022-07-26T19:03:29.852Z,19.86
2022-07-26T19:08:33.056Z,19.76
2022-07-26T19:13:34.772Z,19.64
2022-07-26T19:18:36.868Z,19.55
2022-07-26T19:23:39.974Z,19.34
2022-07-26T19:28:41.717Z,19.17
2022-07-26T19:33:43.450Z,18.99
2022-07-26T19:38:47.812Z,18.83
2022-07-26T19:43:49.634Z,18.77
2022-07-26T19:48:54.295Z,18.70
2022-07-26T19:53:58.183Z,18.65
2022-07-26T19:59:00.457Z,18.49
2022-07-26T20:04:02.337Z,18.49
2022-07-26T20:09:05.663Z,18.29
2022-07-26T20:14:07.710Z,18.18
2022-07-26T20:19:10.108Z,18.04
2022-07-26T20:24:13.508Z,18.01
2022-07-26T20:29:16.005Z,18.04
2022-07-26T20:34:17.941Z,18.22
2022-07-26T20:39:21.461Z,18.36
2022-07-26T20:44:27.938Z,18.20
2022-07-26T20:49:30.339Z,17.96
2022-07-26T20:54:33.499Z,17.86
2022-07-26T20:59:35.431Z,17.92
2022-07-26T21:04:37.172Z,17.97
2022-07-26T21:09:40.283Z,17.85
2022-07-26T21:14:42.355Z,17.65
2022-07-26T21:19:44.664Z,17.71
2022-07-26T21:24:47.770Z,17.82
2022-07-26T21:29:49.877Z,17.87
2022-07-26T21:34:51.679Z,17.80
2022-07-26T21:39:54.899Z,17.78
2022-07-26T21:44:56.643Z,17.60
2022-07-26T21:50:00.611Z,17.56
2022-07-26T21:55:04.531Z,17.59
2022-07-26T22:00:07.683Z,17.63
2022-07-26T22:05:09.917Z,17.72
2022-07-26T22:10:13.311Z,17.61
2022-07-26T22:15:15.412Z,17.63
2022-07-26T22:20:17.510Z,17.53
2022-07-26T22:25:20.770Z,17.48
2022-07-26T22:30:22.851Z,17.41
2022-07-26T22:35:25.313Z,17.41
2022-07-26T22:40:37.005Z,17.46
2022-07-26T22:45:39.588Z,17.44
2022-07-26T22:50:41.734Z,17.41
2022-07-26T22:55:45.370Z,17.36
2022-07-26T23:00:47.624Z,17.23
2022-07-26T23:05:50.594Z,17.16
2022-07-26T23:10:55.868Z,17.03
2022-07-26T23:16:00.864Z,16.92
2022-07-26T23:21:04.270Z,16.82
2022-07-26T23:26:07.935Z,16.74
2022-07-26T23:31:11.379Z,16.63
2022-07-26T23:36:13.741Z,16.42
2022-07-26T23:41:17.176Z,16.27
2022-07-26T23:46:19.132Z,16.28
2022-07-26T23:51:21.797Z,16.22
2022-07-26T23:56:26.012Z,16.20
